Jerome, PA (15937)

9:22 PM EDT on March 28, 2017 (GMT -0400)
School Ave. | | Change Station

Elev 1880 ft 40.21 °N, 78.99 °W | Updated 2 minutes ago

Overcast
Overcast
53.0 °F
Feels Like 53.0 °F
N
0.0
Wind Variable Wind from SW
Gusts 1.0 mph

Today
High -- | Low -- °F
--% Chance of Precip.
Yesterday
High -- | Low -- °F
Precip. -- in
Pressure 30.00 in
Visibility 10.0 miles
Clouds Mostly Cloudy 1000 ft
Overcast 1600 ft
Dew Point 50 °F
Humidity 91%
Rainfall 0.43 in
Snow Depth Not available.
7:05 AM 7:36 PM
New Moon, 1% visible
SPECI KJST 290110Z AUTO 33009KT 10SM BKN010 OVC016 11/10 A3000 RMK AO2 T01060100
Pressure 30.00 in
Visibility 10.0 miles
Clouds Mostly Cloudy 1000 ft
Overcast 1600 ft
Dew Point 50 °F
Humidity 91%
Rainfall 0.43 in
Snow Depth Not available.
7:05 AM 7:36 PM
New Moon, 1% visible
SPECI KJST 290110Z AUTO 33009KT 10SM BKN010 OVC016 11/10 A3000 RMK AO2 T01060100

Get Severe Weather Alerts

Thanks for signing up!

Be on the lookout for a verification email in your inbox.

You'll start receiving the daily forecast at 8 AM.

×

10-Day Weather Forecast

Almanac

Astronomy

Mar. 28, 2017 Rise Set
Actual Time
Civil Twilight
Nautical Twilight
Astronomical Twilight
Moon
Length of Visible Light
Length of Day
Tomorrow will be .
, % of the Moon is Illuminated

Today's Extremes

State Highs State Lows

Community

WunderPhotos

Upload Photos

1,962,540 photos uploaded!

WunderBlog® & News

Nearby

Air Quality

  Air Quality AQ Index Pollutant
Not available.

Snow Depth

Station Depth Elevation

Earthquake Activity

City Distance Mag. Time & Date
Minimum magnitude displayed is 2.5.

Earthquake Activity

City Distance Mag. Time & Date
Minimum magnitude displayed is 2.5.

Coastal Water Temperatures

Place Temperature

Stations

Nearby Weather Stations

Station Location Temp. Windchill Dew Point Humidity Wind Precip. Elev Updated Type
                   

Watches & Warnings

There are currently no watches in effect.